TLSO2: Arkansas River, Tulsa, OK

                                SHEF ID:       TLSO2     Arkansas River at Tulsa, OK
STATION TYPE: Stream Gauge
Regulating: Stage = 15.00, Flow = 96489

PRECIP STAGE STAGE(2) RIV-FLOW WTR-TEMP DIS-OXY BAT-LOAD
in ft ft cfs F mg/l volt
Ccp-Rev Ccp-Rev Ccp-Rev Ccp-Rev Ccp-Rev Ccp-Rev Ccp-Rev
(America/Chicago)
05/05 00:00 0.00 4.71 ---- 6324 70.20 7.62 ----
05/05 01:00 0.00 4.68 ---- 6121 69.66 7.28 ----
05/05 02:00 0.00 4.70 ---- 6258 69.39 6.98 ----
05/05 03:00 0.00 4.68 ---- 6121 68.56 6.62 ----
05/05 04:00 0.00 4.67 ---- 6053 68.09 6.37 ----
05/05 05:00 0.00 4.61 ---- 5652 67.84 6.33 ----
05/05 06:00 0.00 4.58 ---- 5458 67.53 6.26 ----
05/05 07:00 0.00 4.55 ---- 5267 67.24 6.12 ----
05/05 08:00 0.00 4.53 ---- 5143 67.21 6.27 ----
05/05 09:00 0.00 4.49 ---- 4898 67.21 6.45 ----
05/05 10:00 0.00 4.46 ---- 4719 67.19 6.48 ----
05/05 11:00 0.00 4.43 ---- 4544 66.81 6.66 ----
05/05 12:00 0.00 4.56 ---- 5331 66.47 7.06 ----
05/05 13:00 0.00 4.63 ---- 5784 66.27 7.31 ----
05/05 14:00 0.00 4.64 ---- 5850 65.84 7.84 ----
05/05 15:00 0.00 4.61 ---- 5652 65.50 8.02 ----
05/05 16:00 0.00 4.68 ---- 6121 65.23 7.98 ----
05/05 17:00 0.00 4.69 ---- 6190 65.05 7.88 ----
05/05 18:00 0.00 4.68 ---- 6121 64.90 7.97 ----
05/05 19:00 0.00 4.68 ---- 6121 64.65 7.90 ----
05/05 20:00 0.00 4.68 ---- 6121 64.51 7.81 ----
05/05 21:00 0.00 4.73 ---- 6457 64.13 7.86 ----
05/05 22:00 0.00 4.69 ---- 6190 64.04 7.68 ----
05/05 23:00 0.00 4.69 ---- 6190 63.77 7.56 ----
Data processed at Wed 06May2026 04:48 GMT

NOTICE: If you are parsing this page

Please convert to using our Data API. Starting early 2026 we will be migrating to: https://water.usace.army.mil with modern pages rendered in JavaScript. When this migration completes you will no longer be able to scrape this page! CWMSDataAPI (CDA)

Timeseries IDs (TSIDs)

TSIDs used from left to right in the data table
TULA.Precip-Inc.Total.1Hour.1Hour.Ccp-Rev
TULA.Stage.Inst.1Hour.0.Ccp-Rev
TULA.Stage-Alt.Inst.1Hour.0.Ccp-Rev
TULA.Flow.Inst.1Hour.0.Ccp-Rev
TULA.Temp-Water.Inst.1Hour.0.Ccp-Rev
TULA.Conc-DO.Inst.1Hour.0.Ccp-Rev
TULA.Volt-Battery Load.Inst.1Hour.0.Ccp-Rev

                            

All information presented herein is the property of the government of the United States of America and may be revised or deleted at any time without prior notice. Dissemination of this information without the expressed written consent of the Public Affairs Office, Tulsa District U.S. Army Corps of Engineers is strictly prohibited. These data are gathered electronically and, as presented, have NOT undergone any form of quality control. These data are NOT guaranteed to be valid or correct.